sensor_id;sensor_type;location;lat;lon;timestamp;temperature;humidity
26947;DHT22;14501;52.282;10.560;2023-10-09T00:01:26;11.90;99.90
26947;DHT22;14501;52.282;10.560;2023-10-09T00:03:52;11.90;99.90
26947;DHT22;14501;52.282;10.560;2023-10-09T00:06:22;11.90;99.90
26947;DHT22;14501;52.282;10.560;2023-10-09T00:09:05;11.90;99.90
26947;DHT22;14501;52.282;10.560;2023-10-09T00:11:43;12.00;99.90
26947;DHT22;14501;52.282;10.560;2023-10-09T00:14:10;12.00;99.90
26947;DHT22;14501;52.282;10.560;2023-10-09T00:16:36;12.00;99.90
26947;DHT22;14501;52.282;10.560;2023-10-09T00:19:08;12.10;99.90
26947;DHT22;14501;52.282;10.560;2023-10-09T00:21:46;12.10;99.90
26947;DHT22;14501;52.282;10.560;2023-10-09T00:24:12;12.20;99.90
26947;DHT22;14501;52.282;10.560;2023-10-09T00:26:53;12.20;99.90
26947;DHT22;14501;52.282;10.560;2023-10-09T00:29:36;12.20;99.90
26947;DHT22;14501;52.282;10.560;2023-10-09T00:32:07;12.20;99.90
26947;DHT22;14501;52.282;10.560;2023-10-09T00:34:40;12.20;99.90
26947;DHT22;14501;52.282;10.560;2023-10-09T00:37:10;12.20;99.90
26947;DHT22;14501;52.282;10.560;2023-10-09T00:39:44;12.20;99.90
26947;DHT22;14501;52.282;10.560;2023-10-09T00:42:11;12.10;99.90
26947;DHT22;14501;52.282;10.560;2023-10-09T00:44:43;12.10;99.90
26947;DHT22;14501;52.282;10.560;2023-10-09T00:47:12;12.10;99.90
26947;DHT22;14501;52.282;10.560;2023-10-09T00:50:09;12.10;99.90
26947;DHT22;14501;52.282;10.560;2023-10-09T00:52:42;12.10;99.90
26947;DHT22;14501;52.282;10.560;2023-10-09T00:55:14;12.10;99.90
26947;DHT22;14501;52.282;10.560;2023-10-09T00:57:55;12.10;99.90
26947;DHT22;14501;52.282;10.560;2023-10-09T01:00:33;12.10;99.90
26947;DHT22;14501;52.282;10.560;2023-10-09T01:03:20;12.10;99.90
26947;DHT22;14501;52.282;10.560;2023-10-09T01:05:51;12.10;99.90
26947;DHT22;14501;52.282;10.560;2023-10-09T01:08:39;12.10;99.90
26947;DHT22;14501;52.282;10.560;2023-10-09T01:11:13;12.10;99.90
26947;DHT22;14501;52.282;10.560;2023-10-09T01:13:49;12.10;99.90
26947;DHT22;14501;52.282;10.560;2023-10-09T01:16:16;12.10;99.90
26947;DHT22;14501;52.282;10.560;2023-10-09T01:19:02;12.10;99.90
26947;DHT22;14501;52.282;10.560;2023-10-09T01:21:39;12.10;99.90
26947;DHT22;14501;52.282;10.560;2023-10-09T01:24:05;12.10;99.90
26947;DHT22;14501;52.282;10.560;2023-10-09T01:26:42;12.10;99.90
26947;DHT22;14501;52.282;10.560;2023-10-09T01:29:22;12.10;99.90
26947;DHT22;14501;52.282;10.560;2023-10-09T01:31:54;12.10;99.90
26947;DHT22;14501;52.282;10.560;2023-10-09T01:34:30;12.20;99.90
26947;DHT22;14501;52.282;10.560;2023-10-09T01:37:20;12.20;99.90
26947;DHT22;14501;52.282;10.560;2023-10-09T01:39:52;12.20;99.90
26947;DHT22;14501;52.282;10.560;2023-10-09T01:42:19;12.20;99.90
26947;DHT22;14501;52.282;10.560;2023-10-09T01:45:06;12.30;99.90
26947;DHT22;14501;52.282;10.560;2023-10-09T01:47:36;12.30;99.90
26947;DHT22;14501;52.282;10.560;2023-10-09T01:50:04;12.30;99.90
26947;DHT22;14501;52.282;10.560;2023-10-09T01:52:30;12.30;99.90
26947;DHT22;14501;52.282;10.560;2023-10-09T01:54:56;12.30;99.90
26947;DHT22;14501;52.282;10.560;2023-10-09T01:57:29;12.30;99.90
26947;DHT22;14501;52.282;10.560;2023-10-09T01:59:55;12.20;99.90
26947;DHT22;14501;52.282;10.560;2023-10-09T02:02:23;12.20;99.90
26947;DHT22;14501;52.282;10.560;2023-10-09T02:04:58;12.20;99.90
26947;DHT22;14501;52.282;10.560;2023-10-09T02:07:51;12.20;99.90
26947;DHT22;14501;52.282;10.560;2023-10-09T02:10:18;12.20;99.90
26947;DHT22;14501;52.282;10.560;2023-10-09T02:12:50;12.30;99.90
26947;DHT22;14501;52.282;10.560;2023-10-09T02:15:30;12.30;99.90
26947;DHT22;14501;52.282;10.560;2023-10-09T02:18:22;12.30;99.90
26947;DHT22;14501;52.282;10.560;2023-10-09T02:20:51;12.30;99.90
26947;DHT22;14501;52.282;10.560;2023-10-09T02:23:31;12.30;99.90
26947;DHT22;14501;52.282;10.560;2023-10-09T02:26:16;12.20;99.90
26947;DHT22;14501;52.282;10.560;2023-10-09T02:28:55;12.20;99.90
26947;DHT22;14501;52.282;10.560;2023-10-09T02:31:40;12.10;99.90
26947;DHT22;14501;52.282;10.560;2023-10-09T02:34:09;12.10;99.90
26947;DHT22;14501;52.282;10.560;2023-10-09T02:36:36;11.90;99.90
26947;DHT22;14501;52.282;10.560;2023-10-09T02:39:15;12.00;99.90
26947;DHT22;14501;52.282;10.560;2023-10-09T02:42:04;11.90;99.90
26947;DHT22;14501;52.282;10.560;2023-10-09T02:44:44;11.90;99.90
26947;DHT22;14501;52.282;10.560;2023-10-09T02:47:15;11.90;99.90
26947;DHT22;14501;52.282;10.560;2023-10-09T02:49:55;11.90;99.90
26947;DHT22;14501;52.282;10.560;2023-10-09T02:52:26;11.80;99.90
26947;DHT22;14501;52.282;10.560;2023-10-09T02:54:58;11.70;99.90
26947;DHT22;14501;52.282;10.560;2023-10-09T02:57:33;11.50;99.90
26947;DHT22;14501;52.282;10.560;2023-10-09T03:00:05;11.50;99.90
26947;DHT22;14501;52.282;10.560;2023-10-09T03:02:43;11.50;99.90
26947;DHT22;14501;52.282;10.560;2023-10-09T03:05:09;11.40;99.90
26947;DHT22;14501;52.282;10.560;2023-10-09T03:07:38;11.40;99.90
26947;DHT22;14501;52.282;10.560;2023-10-09T03:10:06;11.40;99.90
26947;DHT22;14501;52.282;10.560;2023-10-09T03:12:38;12.00;99.90
26947;DHT22;14501;52.282;10.560;2023-10-09T03:15:05;11.40;99.90
26947;DHT22;14501;52.282;10.560;2023-10-09T03:17:34;11.40;99.90
26947;DHT22;14501;52.282;10.560;2023-10-09T03:20:04;11.50;99.90
26947;DHT22;14501;52.282;10.560;2023-10-09T03:22:38;11.40;99.90
26947;DHT22;14501;52.282;10.560;2023-10-09T03:25:03;11.40;99.90
26947;DHT22;14501;52.282;10.560;2023-10-09T03:27:39;11.40;99.90
26947;DHT22;14501;52.282;10.560;2023-10-09T03:30:14;11.40;99.90
26947;DHT22;14501;52.282;10.560;2023-10-09T03:32:49;11.30;99.90
26947;DHT22;14501;52.282;10.560;2023-10-09T03:35:20;11.20;99.90
26947;DHT22;14501;52.282;10.560;2023-10-09T03:37:59;11.10;99.90
26947;DHT22;14501;52.282;10.560;2023-10-09T03:40:43;11.20;99.90
26947;DHT22;14501;52.282;10.560;2023-10-09T03:43:09;11.10;99.90
26947;DHT22;14501;52.282;10.560;2023-10-09T03:45:39;11.30;99.90
26947;DHT22;14501;52.282;10.560;2023-10-09T03:48:11;11.90;99.90
26947;DHT22;14501;52.282;10.560;2023-10-09T03:50:37;11.10;99.90
26947;DHT22;14501;52.282;10.560;2023-10-09T03:53:04;11.10;99.90
26947;DHT22;14501;52.282;10.560;2023-10-09T03:55:33;11.10;99.90
26947;DHT22;14501;52.282;10.560;2023-10-09T03:57:59;11.10;99.90
26947;DHT22;14501;52.282;10.560;2023-10-09T04:00:28;11.40;99.90
26947;DHT22;14501;52.282;10.560;2023-10-09T04:02:58;11.40;99.90
26947;DHT22;14501;52.282;10.560;2023-10-09T04:05:24;12.10;99.90
26947;DHT22;14501;52.282;10.560;2023-10-09T04:07:50;11.00;99.90
26947;DHT22;14501;52.282;10.560;2023-10-09T04:10:19;11.00;99.90
26947;DHT22;14501;52.282;10.560;2023-10-09T04:13:04;11.70;99.90
26947;DHT22;14501;52.282;10.560;2023-10-09T04:15:34;11.00;99.90
26947;DHT22;14501;52.282;10.560;2023-10-09T04:18:01;11.40;99.90
26947;DHT22;14501;52.282;10.560;2023-10-09T04:20:26;11.00;99.90
26947;DHT22;14501;52.282;10.560;2023-10-09T04:22:58;11.40;99.90
26947;DHT22;14501;52.282;10.560;2023-10-09T04:25:46;11.10;99.90
26947;DHT22;14501;52.282;10.560;2023-10-09T04:28:16;11.10;99.90
26947;DHT22;14501;52.282;10.560;2023-10-09T04:30:41;11.10;99.90
26947;DHT22;14501;52.282;10.560;2023-10-09T04:33:11;11.10;99.90
26947;DHT22;14501;52.282;10.560;2023-10-09T04:35:54;11.30;99.90
26947;DHT22;14501;52.282;10.560;2023-10-09T04:38:39;11.20;99.90
26947;DHT22;14501;52.282;10.560;2023-10-09T04:41:22;11.40;99.90
26947;DHT22;14501;52.282;10.560;2023-10-09T04:43:54;11.40;99.90
26947;DHT22;14501;52.282;10.560;2023-10-09T04:46:30;11.40;99.90
26947;DHT22;14501;52.282;10.560;2023-10-09T04:49:09;11.40;99.90
26947;DHT22;14501;52.282;10.560;2023-10-09T04:51:52;11.70;99.90
26947;DHT22;14501;52.282;10.560;2023-10-09T04:54:43;11.40;99.90
26947;DHT22;14501;52.282;10.560;2023-10-09T04:57:29;11.50;99.90
26947;DHT22;14501;52.282;10.560;2023-10-09T05:00:04;11.50;99.90
26947;DHT22;14501;52.282;10.560;2023-10-09T05:02:32;11.60;99.90
26947;DHT22;14501;52.282;10.560;2023-10-09T05:05:02;11.70;99.90
26947;DHT22;14501;52.282;10.560;2023-10-09T05:08:03;11.60;99.90
26947;DHT22;14501;52.282;10.560;2023-10-09T05:10:52;11.60;99.90
26947;DHT22;14501;52.282;10.560;2023-10-09T05:13:36;11.80;99.90
26947;DHT22;14501;52.282;10.560;2023-10-09T05:18:56;11.70;99.90
26947;DHT22;14501;52.282;10.560;2023-10-09T05:21:39;11.70;99.90
26947;DHT22;14501;52.282;10.560;2023-10-09T05:24:07;11.80;99.90
26947;DHT22;14501;52.282;10.560;2023-10-09T05:29:17;11.80;99.90
26947;DHT22;14501;52.282;10.560;2023-10-09T05:32:03;11.90;99.90
26947;DHT22;14501;52.282;10.560;2023-10-09T05:34:34;12.00;99.90
26947;DHT22;14501;52.282;10.560;2023-10-09T05:37:06;12.00;99.90
26947;DHT22;14501;52.282;10.560;2023-10-09T05:39:54;12.00;99.90
26947;DHT22;14501;52.282;10.560;2023-10-09T05:42:29;12.10;99.90
26947;DHT22;14501;52.282;10.560;2023-10-09T05:45:14;12.10;99.90
26947;DHT22;14501;52.282;10.560;2023-10-09T05:47:50;12.20;99.90
26947;DHT22;14501;52.282;10.560;2023-10-09T05:50:23;12.20;99.90
26947;DHT22;14501;52.282;10.560;2023-10-09T05:52:50;12.20;99.90
26947;DHT22;14501;52.282;10.560;2023-10-09T05:55:16;12.30;99.90
26947;DHT22;14501;52.282;10.560;2023-10-09T05:57:45;12.30;99.90
26947;DHT22;14501;52.282;10.560;2023-10-09T06:00:29;12.40;99.90
26947;DHT22;14501;52.282;10.560;2023-10-09T06:03:13;12.40;99.90
26947;DHT22;14501;52.282;10.560;2023-10-09T06:05:50;12.60;99.90
26947;DHT22;14501;52.282;10.560;2023-10-09T06:08:22;12.50;99.90
26947;DHT22;14501;52.282;10.560;2023-10-09T06:11:10;12.50;99.90
26947;DHT22;14501;52.282;10.560;2023-10-09T06:13:55;12.60;99.90
26947;DHT22;14501;52.282;10.560;2023-10-09T06:16:37;12.70;99.90
26947;DHT22;14501;52.282;10.560;2023-10-09T06:19:25;12.80;99.90
26947;DHT22;14501;52.282;10.560;2023-10-09T06:21:56;12.90;99.90
26947;DHT22;14501;52.282;10.560;2023-10-09T06:24:37;12.90;99.90
26947;DHT22;14501;52.282;10.560;2023-10-09T06:27:21;13.00;99.90
26947;DHT22;14501;52.282;10.560;2023-10-09T06:30:10;13.00;99.90
26947;DHT22;14501;52.282;10.560;2023-10-09T06:32:40;13.10;99.90
26947;DHT22;14501;52.282;10.560;2023-10-09T06:35:17;13.10;99.90
26947;DHT22;14501;52.282;10.560;2023-10-09T06:37:51;13.10;99.90
26947;DHT22;14501;52.282;10.560;2023-10-09T06:40:33;13.20;99.90
26947;DHT22;14501;52.282;10.560;2023-10-09T06:43:05;13.30;99.90
26947;DHT22;14501;52.282;10.560;2023-10-09T06:45:56;13.60;99.90
26947;DHT22;14501;52.282;10.560;2023-10-09T06:51:13;13.60;99.90
26947;DHT22;14501;52.282;10.560;2023-10-09T06:53:55;13.80;99.90
26947;DHT22;14501;52.282;10.560;2023-10-09T06:56:21;13.80;99.90
26947;DHT22;14501;52.282;10.560;2023-10-09T06:59:01;14.50;99.90
26947;DHT22;14501;52.282;10.560;2023-10-09T07:01:40;13.80;99.90
26947;DHT22;14501;52.282;10.560;2023-10-09T07:04:10;13.80;99.90
26947;DHT22;14501;52.282;10.560;2023-10-09T07:06:48;13.80;99.90
26947;DHT22;14501;52.282;10.560;2023-10-09T07:09:14;13.80;99.90
26947;DHT22;14501;52.282;10.560;2023-10-09T07:11:44;13.80;99.90
26947;DHT22;14501;52.282;10.560;2023-10-09T07:14:15;13.80;99.90
26947;DHT22;14501;52.282;10.560;2023-10-09T07:19:23;13.80;99.90
26947;DHT22;14501;52.282;10.560;2023-10-09T07:22:12;13.80;99.90
26947;DHT22;14501;52.282;10.560;2023-10-09T07:24:50;13.80;99.90
26947;DHT22;14501;52.282;10.560;2023-10-09T07:27:30;13.80;99.90
26947;DHT22;14501;52.282;10.560;2023-10-09T07:30:13;13.80;99.90
26947;DHT22;14501;52.282;10.560;2023-10-09T07:35:46;13.80;99.90
26947;DHT22;14501;52.282;10.560;2023-10-09T07:38:20;13.80;99.90
26947;DHT22;14501;52.282;10.560;2023-10-09T07:40:46;13.90;99.90
26947;DHT22;14501;52.282;10.560;2023-10-09T07:43:28;13.90;99.90
26947;DHT22;14501;52.282;10.560;2023-10-09T07:45:57;14.20;99.90
26947;DHT22;14501;52.282;10.560;2023-10-09T07:48:22;14.00;99.90
26947;DHT22;14501;52.282;10.560;2023-10-09T07:53:23;14.00;99.90
26947;DHT22;14501;52.282;10.560;2023-10-09T07:55:55;14.20;99.90
26947;DHT22;14501;52.282;10.560;2023-10-09T07:58:24;14.00;99.90
26947;DHT22;14501;52.282;10.560;2023-10-09T08:00:57;14.00;99.90
26947;DHT22;14501;52.282;10.560;2023-10-09T08:03:32;14.00;99.90
26947;DHT22;14501;52.282;10.560;2023-10-09T08:06:00;14.10;99.90
26947;DHT22;14501;52.282;10.560;2023-10-09T08:08:44;14.10;99.90
26947;DHT22;14501;52.282;10.560;2023-10-09T08:11:31;14.20;99.90
26947;DHT22;14501;52.282;10.560;2023-10-09T08:14:08;14.30;99.90
26947;DHT22;14501;52.282;10.560;2023-10-09T08:17:00;14.30;99.90
26947;DHT22;14501;52.282;10.560;2023-10-09T08:19:50;14.30;99.90
26947;DHT22;14501;52.282;10.560;2023-10-09T08:22:37;14.30;99.90
26947;DHT22;14501;52.282;10.560;2023-10-09T08:25:12;14.30;99.90
26947;DHT22;14501;52.282;10.560;2023-10-09T08:28:00;14.30;99.90
26947;DHT22;14501;52.282;10.560;2023-10-09T08:30:46;14.30;99.90
26947;DHT22;14501;52.282;10.560;2023-10-09T08:33:20;14.30;99.90
26947;DHT22;14501;52.282;10.560;2023-10-09T08:35:54;14.50;99.90
26947;DHT22;14501;52.282;10.560;2023-10-09T08:38:27;14.40;99.90
26947;DHT22;14501;52.282;10.560;2023-10-09T08:41:06;14.40;99.90
26947;DHT22;14501;52.282;10.560;2023-10-09T08:43:43;14.50;99.90
26947;DHT22;14501;52.282;10.560;2023-10-09T08:46:12;14.50;99.90
26947;DHT22;14501;52.282;10.560;2023-10-09T08:48:44;14.50;99.90
26947;DHT22;14501;52.282;10.560;2023-10-09T08:51:10;14.50;99.90
26947;DHT22;14501;52.282;10.560;2023-10-09T08:53:36;14.60;99.90
26947;DHT22;14501;52.282;10.560;2023-10-09T08:56:17;14.50;99.90
26947;DHT22;14501;52.282;10.560;2023-10-09T08:58:59;14.50;99.90
26947;DHT22;14501;52.282;10.560;2023-10-09T09:01:25;14.60;99.90
26947;DHT22;14501;52.282;10.560;2023-10-09T09:03:52;14.60;99.90
26947;DHT22;14501;52.282;10.560;2023-10-09T09:06:21;14.70;99.90
26947;DHT22;14501;52.282;10.560;2023-10-09T09:08:49;14.60;99.90
26947;DHT22;14501;52.282;10.560;2023-10-09T09:11:16;14.70;99.90
26947;DHT22;14501;52.282;10.560;2023-10-09T09:14:04;14.70;99.90
26947;DHT22;14501;52.282;10.560;2023-10-09T09:16:32;14.80;99.90
26947;DHT22;14501;52.282;10.560;2023-10-09T09:19:00;14.80;99.90
26947;DHT22;14501;52.282;10.560;2023-10-09T09:21:29;14.80;99.90
26947;DHT22;14501;52.282;10.560;2023-10-09T09:24:00;14.80;99.90
26947;DHT22;14501;52.282;10.560;2023-10-09T09:26:42;14.40;99.90
26947;DHT22;14501;52.282;10.560;2023-10-09T09:29:15;14.80;99.90
26947;DHT22;14501;52.282;10.560;2023-10-09T09:31:54;14.80;99.90
26947;DHT22;14501;52.282;10.560;2023-10-09T09:34:21;14.80;99.90
26947;DHT22;14501;52.282;10.560;2023-10-09T09:36:56;14.90;99.90
26947;DHT22;14501;52.282;10.560;2023-10-09T09:39:25;15.00;99.90
26947;DHT22;14501;52.282;10.560;2023-10-09T09:42:01;14.90;99.90
26947;DHT22;14501;52.282;10.560;2023-10-09T09:44:33;15.00;99.90
26947;DHT22;14501;52.282;10.560;2023-10-09T09:47:09;15.00;99.90
26947;DHT22;14501;52.282;10.560;2023-10-09T09:49:41;15.00;99.90
26947;DHT22;14501;52.282;10.560;2023-10-09T09:52:07;15.10;99.90
26947;DHT22;14501;52.282;10.560;2023-10-09T09:54:38;15.10;99.90
26947;DHT22;14501;52.282;10.560;2023-10-09T09:57:04;15.00;99.90
26947;DHT22;14501;52.282;10.560;2023-10-09T09:59:42;15.00;99.90
26947;DHT22;14501;52.282;10.560;2023-10-09T10:02:30;15.00;99.90
26947;DHT22;14501;52.282;10.560;2023-10-09T10:05:03;14.90;99.90
26947;DHT22;14501;52.282;10.560;2023-10-09T10:07:31;14.90;99.90
26947;DHT22;14501;52.282;10.560;2023-10-09T10:10:34;14.90;99.90
26947;DHT22;14501;52.282;10.560;2023-10-09T10:13:03;14.90;99.90
26947;DHT22;14501;52.282;10.560;2023-10-09T10:16:11;15.00;99.90
26947;DHT22;14501;52.282;10.560;2023-10-09T10:19:01;15.00;99.90
26947;DHT22;14501;52.282;10.560;2023-10-09T10:21:53;15.10;99.90
26947;DHT22;14501;52.282;10.560;2023-10-09T10:32:58;15.20;99.90
26947;DHT22;14501;52.282;10.560;2023-10-09T10:35:41;15.20;99.90
26947;DHT22;14501;52.282;10.560;2023-10-09T10:38:28;15.20;99.90
26947;DHT22;14501;52.282;10.560;2023-10-09T10:43:40;15.10;99.90
26947;DHT22;14501;52.282;10.560;2023-10-09T10:46:15;15.20;99.90
26947;DHT22;14501;52.282;10.560;2023-10-09T10:48:53;15.20;99.90
26947;DHT22;14501;52.282;10.560;2023-10-09T10:51:29;15.20;99.90
26947;DHT22;14501;52.282;10.560;2023-10-09T10:54:09;15.20;99.90
26947;DHT22;14501;52.282;10.560;2023-10-09T10:56:53;15.20;99.90
26947;DHT22;14501;52.282;10.560;2023-10-09T11:01:50;15.30;99.90
26947;DHT22;14501;52.282;10.560;2023-10-09T11:04:41;15.30;99.90
26947;DHT22;14501;52.282;10.560;2023-10-09T11:07:11;15.20;99.90
26947;DHT22;14501;52.282;10.560;2023-10-09T11:09:50;15.30;99.90
26947;DHT22;14501;52.282;10.560;2023-10-09T11:15:16;15.20;99.90
26947;DHT22;14501;52.282;10.560;2023-10-09T11:18:01;15.20;99.90
26947;DHT22;14501;52.282;10.560;2023-10-09T11:20:36;15.20;99.90
26947;DHT22;14501;52.282;10.560;2023-10-09T11:23:04;15.20;99.90
26947;DHT22;14501;52.282;10.560;2023-10-09T11:25:39;15.20;99.90
26947;DHT22;14501;52.282;10.560;2023-10-09T11:28:24;15.20;99.90
26947;DHT22;14501;52.282;10.560;2023-10-09T11:30:55;15.20;99.90
26947;DHT22;14501;52.282;10.560;2023-10-09T11:33:21;15.20;99.90
26947;DHT22;14501;52.282;10.560;2023-10-09T11:35:56;15.30;99.90
26947;DHT22;14501;52.282;10.560;2023-10-09T11:38:23;15.30;99.90
26947;DHT22;14501;52.282;10.560;2023-10-09T11:40:49;15.30;99.90
26947;DHT22;14501;52.282;10.560;2023-10-09T11:43:48;15.30;99.90
26947;DHT22;14501;52.282;10.560;2023-10-09T11:46:18;15.40;99.90
26947;DHT22;14501;52.282;10.560;2023-10-09T11:49:10;15.40;99.90
26947;DHT22;14501;52.282;10.560;2023-10-09T11:51:44;15.40;99.90
26947;DHT22;14501;52.282;10.560;2023-10-09T11:54:31;15.30;99.90
26947;DHT22;14501;52.282;10.560;2023-10-09T11:56:57;15.40;99.90
26947;DHT22;14501;52.282;10.560;2023-10-09T11:59:35;15.40;99.90
26947;DHT22;14501;52.282;10.560;2023-10-09T12:02:05;15.40;99.90
26947;DHT22;14501;52.282;10.560;2023-10-09T12:04:30;15.40;99.90
26947;DHT22;14501;52.282;10.560;2023-10-09T12:06:57;15.40;99.90
26947;DHT22;14501;52.282;10.560;2023-10-09T12:09:36;15.40;99.90
26947;DHT22;14501;52.282;10.560;2023-10-09T12:12:04;15.40;99.90
26947;DHT22;14501;52.282;10.560;2023-10-09T12:14:30;15.40;99.90
26947;DHT22;14501;52.282;10.560;2023-10-09T12:17:02;15.40;99.90
26947;DHT22;14501;52.282;10.560;2023-10-09T12:19:35;15.40;99.90
26947;DHT22;14501;52.282;10.560;2023-10-09T12:22:02;15.40;99.90
26947;DHT22;14501;52.282;10.560;2023-10-09T12:24:32;15.30;99.90
26947;DHT22;14501;52.282;10.560;2023-10-09T12:26:59;15.30;99.90
26947;DHT22;14501;52.282;10.560;2023-10-09T12:29:25;15.30;99.90
26947;DHT22;14501;52.282;10.560;2023-10-09T12:31:56;15.30;99.90
26947;DHT22;14501;52.282;10.560;2023-10-09T12:34:25;15.40;99.90
26947;DHT22;14501;52.282;10.560;2023-10-09T12:36:54;15.30;99.90
26947;DHT22;14501;52.282;10.560;2023-10-09T12:39:21;15.30;99.90
26947;DHT22;14501;52.282;10.560;2023-10-09T12:41:47;15.30;99.90
26947;DHT22;14501;52.282;10.560;2023-10-09T12:44:13;15.30;99.90
26947;DHT22;14501;52.282;10.560;2023-10-09T12:46:45;15.30;99.90
26947;DHT22;14501;52.282;10.560;2023-10-09T12:49:23;15.40;99.90
26947;DHT22;14501;52.282;10.560;2023-10-09T12:51:52;15.40;99.90
26947;DHT22;14501;52.282;10.560;2023-10-09T12:54:18;15.40;99.90
26947;DHT22;14501;52.282;10.560;2023-10-09T12:56:53;15.40;99.90
26947;DHT22;14501;52.282;10.560;2023-10-09T12:59:18;15.40;99.90
26947;DHT22;14501;52.282;10.560;2023-10-09T13:04:18;15.40;99.90
26947;DHT22;14501;52.282;10.560;2023-10-09T13:06:44;15.40;99.90
26947;DHT22;14501;52.282;10.560;2023-10-09T13:09:14;15.40;99.90
26947;DHT22;14501;52.282;10.560;2023-10-09T13:11:41;15.50;99.90
26947;DHT22;14501;52.282;10.560;2023-10-09T13:14:08;15.50;99.90
26947;DHT22;14501;52.282;10.560;2023-10-09T13:16:45;15.40;99.90
26947;DHT22;14501;52.282;10.560;2023-10-09T13:19:11;15.40;99.90
26947;DHT22;14501;52.282;10.560;2023-10-09T13:21:37;15.40;99.90
26947;DHT22;14501;52.282;10.560;2023-10-09T13:24:04;15.40;99.90
26947;DHT22;14501;52.282;10.560;2023-10-09T13:26:30;15.50;99.90
26947;DHT22;14501;52.282;10.560;2023-10-09T13:28:58;15.50;99.90
26947;DHT22;14501;52.282;10.560;2023-10-09T13:31:25;15.50;99.90
26947;DHT22;14501;52.282;10.560;2023-10-09T13:33:52;15.50;99.90
26947;DHT22;14501;52.282;10.560;2023-10-09T13:36:24;15.40;99.90
26947;DHT22;14501;52.282;10.560;2023-10-09T13:38:54;15.40;99.90
26947;DHT22;14501;52.282;10.560;2023-10-09T13:41:20;15.40;99.90
26947;DHT22;14501;52.282;10.560;2023-10-09T13:43:46;15.50;99.90
26947;DHT22;14501;52.282;10.560;2023-10-09T13:46:12;15.40;99.90
26947;DHT22;14501;52.282;10.560;2023-10-09T13:48:41;15.50;99.90
26947;DHT22;14501;52.282;10.560;2023-10-09T13:51:11;15.50;99.90
26947;DHT22;14501;52.282;10.560;2023-10-09T13:53:43;15.50;99.90
26947;DHT22;14501;52.282;10.560;2023-10-09T13:56:17;15.60;99.90
26947;DHT22;14501;52.282;10.560;2023-10-09T13:58:45;15.60;99.90
26947;DHT22;14501;52.282;10.560;2023-10-09T14:01:10;15.70;99.90
26947;DHT22;14501;52.282;10.560;2023-10-09T14:03:36;15.70;99.90
26947;DHT22;14501;52.282;10.560;2023-10-09T14:06:06;15.70;99.90
26947;DHT22;14501;52.282;10.560;2023-10-09T14:08:39;15.80;99.90
26947;DHT22;14501;52.282;10.560;2023-10-09T14:11:08;15.80;99.90
26947;DHT22;14501;52.282;10.560;2023-10-09T14:13:39;15.80;99.90
26947;DHT22;14501;52.282;10.560;2023-10-09T14:16:05;15.80;99.90
26947;DHT22;14501;52.282;10.560;2023-10-09T14:18:32;15.90;99.90
26947;DHT22;14501;52.282;10.560;2023-10-09T14:21:02;16.00;99.90
26947;DHT22;14501;52.282;10.560;2023-10-09T14:23:30;16.00;99.90
26947;DHT22;14501;52.282;10.560;2023-10-09T14:25:59;16.00;99.90
26947;DHT22;14501;52.282;10.560;2023-10-09T14:28:27;16.00;99.90
26947;DHT22;14501;52.282;10.560;2023-10-09T14:33:25;15.90;99.90
26947;DHT22;14501;52.282;10.560;2023-10-09T14:35:54;15.90;99.90
26947;DHT22;14501;52.282;10.560;2023-10-09T14:38:20;15.90;99.90
26947;DHT22;14501;52.282;10.560;2023-10-09T14:40:52;16.00;99.90
26947;DHT22;14501;52.282;10.560;2023-10-09T14:43:23;15.90;99.90
26947;DHT22;14501;52.282;10.560;2023-10-09T14:45:54;16.00;99.90
26947;DHT22;14501;52.282;10.560;2023-10-09T14:48:20;15.90;99.90
26947;DHT22;14501;52.282;10.560;2023-10-09T14:50:53;15.90;99.90
26947;DHT22;14501;52.282;10.560;2023-10-09T14:53:19;16.00;99.90
26947;DHT22;14501;52.282;10.560;2023-10-09T14:55:58;16.10;99.90
26947;DHT22;14501;52.282;10.560;2023-10-09T14:58:29;16.00;99.90
26947;DHT22;14501;52.282;10.560;2023-10-09T15:00:56;16.00;99.90
26947;DHT22;14501;52.282;10.560;2023-10-09T15:03:22;16.00;99.90
26947;DHT22;14501;52.282;10.560;2023-10-09T15:05:48;16.10;99.90
26947;DHT22;14501;52.282;10.560;2023-10-09T15:08:15;16.00;99.90
26947;DHT22;14501;52.282;10.560;2023-10-09T15:10:51;16.00;99.90
26947;DHT22;14501;52.282;10.560;2023-10-09T15:13:21;16.00;99.90
26947;DHT22;14501;52.282;10.560;2023-10-09T15:15:53;16.10;99.90
26947;DHT22;14501;52.282;10.560;2023-10-09T15:18:20;16.00;99.90
26947;DHT22;14501;52.282;10.560;2023-10-09T15:20:47;16.00;99.90
26947;DHT22;14501;52.282;10.560;2023-10-09T15:23:13;16.00;99.90
26947;DHT22;14501;52.282;10.560;2023-10-09T15:25:38;16.00;99.90
26947;DHT22;14501;52.282;10.560;2023-10-09T15:28:05;15.90;99.90
26947;DHT22;14501;52.282;10.560;2023-10-09T15:30:33;15.90;99.90
26947;DHT22;14501;52.282;10.560;2023-10-09T15:32:59;15.90;99.90
26947;DHT22;14501;52.282;10.560;2023-10-09T15:35:26;15.90;99.90
26947;DHT22;14501;52.282;10.560;2023-10-09T15:37:54;16.00;99.90
26947;DHT22;14501;52.282;10.560;2023-10-09T15:40:20;16.00;99.90
26947;DHT22;14501;52.282;10.560;2023-10-09T15:42:50;16.00;99.90
26947;DHT22;14501;52.282;10.560;2023-10-09T15:45:19;15.90;99.90
26947;DHT22;14501;52.282;10.560;2023-10-09T15:47:47;15.90;99.90
26947;DHT22;14501;52.282;10.560;2023-10-09T15:50:13;16.00;99.90
26947;DHT22;14501;52.282;10.560;2023-10-09T15:52:40;15.90;99.90
26947;DHT22;14501;52.282;10.560;2023-10-09T15:55:09;16.00;99.90
26947;DHT22;14501;52.282;10.560;2023-10-09T15:57:41;15.90;99.90
26947;DHT22;14501;52.282;10.560;2023-10-09T16:00:07;15.90;99.90
26947;DHT22;14501;52.282;10.560;2023-10-09T16:02:40;15.90;99.90
26947;DHT22;14501;52.282;10.560;2023-10-09T16:05:06;16.00;99.90
26947;DHT22;14501;52.282;10.560;2023-10-09T16:07:32;15.90;99.90
26947;DHT22;14501;52.282;10.560;2023-10-09T16:12:31;16.00;99.90
26947;DHT22;14501;52.282;10.560;2023-10-09T16:14:56;15.90;99.90
26947;DHT22;14501;52.282;10.560;2023-10-09T16:17:22;16.00;99.90
26947;DHT22;14501;52.282;10.560;2023-10-09T16:19:50;15.90;99.90
26947;DHT22;14501;52.282;10.560;2023-10-09T16:22:16;15.90;99.90
26947;DHT22;14501;52.282;10.560;2023-10-09T16:24:43;15.90;99.90
26947;DHT22;14501;52.282;10.560;2023-10-09T16:27:12;15.90;99.90
26947;DHT22;14501;52.282;10.560;2023-10-09T16:29:40;15.90;99.90
26947;DHT22;14501;52.282;10.560;2023-10-09T16:32:06;15.90;99.90
26947;DHT22;14501;52.282;10.560;2023-10-09T16:34:33;15.80;99.90